createdAt,value
2023-03-22T00:02:00.589Z,9.00
2023-03-22T00:04:27.102Z,9.05
2023-03-22T00:06:53.706Z,9.05
2023-03-22T00:09:20.434Z,9.04
2023-03-22T00:11:50.869Z,9.08
2023-03-22T00:14:18.842Z,9.12
2023-03-22T00:16:46.416Z,9.17
2023-03-22T00:19:13.191Z,9.16
2023-03-22T00:21:39.784Z,9.10
2023-03-22T00:24:06.733Z,8.94
2023-03-22T00:26:33.416Z,8.87
2023-03-22T00:29:00.795Z,8.79
2023-03-22T00:31:27.477Z,8.67
2023-03-22T00:33:54.175Z,8.57
2023-03-22T00:36:21.158Z,8.50
2023-03-22T00:38:48.084Z,8.45
2023-03-22T00:41:20.362Z,8.41
2023-03-22T00:43:48.329Z,8.36
2023-03-22T00:46:16.835Z,8.36
2023-03-22T00:48:44.286Z,8.36
2023-03-22T00:51:11.468Z,8.39
2023-03-22T00:53:42.397Z,8.46
2023-03-22T00:56:13.844Z,8.53
2023-03-22T00:58:40.953Z,8.62
2023-03-22T01:01:08.350Z,8.73
2023-03-22T01:03:35.161Z,8.80
2023-03-22T01:06:01.972Z,8.86
2023-03-22T01:08:33.336Z,8.97
2023-03-22T01:11:01.251Z,9.08
2023-03-22T01:13:28.974Z,9.18
2023-03-22T01:15:56.032Z,9.37
2023-03-22T01:18:23.024Z,9.61
2023-03-22T01:20:49.620Z,9.81
2023-03-22T01:23:16.185Z,10.00
2023-03-22T01:25:42.926Z,10.08
2023-03-22T01:28:09.815Z,10.15
2023-03-22T01:30:37.002Z,10.24
2023-03-22T01:33:03.894Z,10.34
2023-03-22T01:35:30.878Z,10.37
2023-03-22T01:37:57.479Z,10.46
2023-03-22T01:40:26.269Z,10.49
2023-03-22T01:42:54.341Z,10.55
2023-03-22T01:45:41.563Z,10.57
2023-03-22T01:48:08.119Z,10.57
2023-03-22T01:50:37.524Z,10.60
2023-03-22T01:53:06.729Z,10.55
2023-03-22T01:55:34.045Z,10.56
2023-03-22T01:58:01.688Z,10.52
2023-03-22T02:00:28.264Z,10.49
2023-03-22T02:02:54.906Z,10.50
2023-03-22T02:05:24.647Z,10.54
2023-03-22T02:07:53.068Z,10.56
2023-03-22T02:10:23.375Z,10.63
2023-03-22T02:13:17.808Z,10.58
2023-03-22T02:16:13.235Z,10.57
2023-03-22T02:18:59.249Z,10.51
2023-03-22T02:22:00.559Z,10.50
2023-03-22T02:24:34.948Z,10.44
2023-03-22T02:27:20.909Z,10.33
2023-03-22T02:29:59.817Z,10.27
2023-03-22T02:32:50.776Z,10.21
2023-03-22T02:35:35.893Z,10.14
2023-03-22T02:38:31.964Z,10.10
2023-03-22T02:41:24.473Z,10.01
2023-03-22T02:44:08.870Z,9.99
2023-03-22T02:46:52.671Z,9.98
2023-03-22T02:49:26.988Z,9.97
2023-03-22T02:52:18.835Z,9.94
2023-03-22T02:55:07.617Z,9.97
2023-03-22T02:57:44.253Z,10.02
2023-03-22T03:00:14.039Z,9.96
2023-03-22T03:02:49.572Z,9.97
2023-03-22T03:05:18.115Z,9.90
2023-03-22T03:07:49.192Z,9.92
2023-03-22T03:10:18.076Z,9.94
2023-03-22T03:12:44.630Z,9.91
2023-03-22T03:15:19.606Z,9.88
2023-03-22T03:18:00.432Z,9.91
2023-03-22T03:21:00.407Z,9.88
2023-03-22T03:23:42.186Z,9.85
2023-03-22T03:26:11.449Z,9.85
2023-03-22T03:28:58.010Z,9.81
2023-03-22T03:31:49.103Z,9.78
2023-03-22T03:34:26.655Z,9.71
2023-03-22T03:37:17.444Z,9.72
2023-03-22T03:39:48.843Z,9.79
2023-03-22T03:42:18.340Z,9.74
2023-03-22T03:44:45.505Z,9.75
2023-03-22T03:47:13.245Z,9.73
2023-03-22T03:49:39.977Z,9.71
2023-03-22T03:52:06.861Z,9.74
2023-03-22T03:54:33.652Z,9.73
2023-03-22T03:57:03.470Z,9.70
2023-03-22T03:59:30.587Z,9.70
2023-03-22T04:01:57.203Z,9.65
2023-03-22T04:04:27.156Z,9.64
2023-03-22T04:06:58.639Z,9.62
2023-03-22T04:09:27.712Z,9.66
2023-03-22T04:11:55.403Z,9.70
2023-03-22T04:14:22.982Z,9.69
2023-03-22T04:16:49.523Z,9.72
2023-03-22T04:19:16.299Z,9.70
2023-03-22T04:21:43.195Z,9.68
2023-03-22T04:24:10.065Z,9.71
2023-03-22T04:26:36.736Z,9.71
2023-03-22T04:29:04.278Z,9.71
2023-03-22T04:31:32.876Z,9.68
2023-03-22T04:34:05.494Z,9.65
2023-03-22T04:36:39.406Z,9.65
2023-03-22T04:39:09.601Z,9.66
2023-03-22T04:41:37.207Z,9.72
2023-03-22T04:44:05.716Z,9.71
2023-03-22T04:46:34.580Z,9.74
2023-03-22T04:49:01.523Z,9.77
2023-03-22T04:51:28.542Z,9.77
2023-03-22T04:53:55.167Z,9.75
2023-03-22T04:56:22.215Z,9.80
2023-03-22T04:58:48.816Z,9.78
2023-03-22T05:01:17.433Z,9.76
2023-03-22T05:03:45.819Z,9.73
2023-03-22T05:06:12.483Z,9.72
2023-03-22T05:08:39.161Z,9.71
2023-03-22T05:11:12.643Z,9.69
2023-03-22T05:13:39.706Z,9.70
2023-03-22T05:16:07.474Z,9.70
2023-03-22T05:18:34.063Z,9.65
2023-03-22T05:21:06.702Z,9.65
2023-03-22T05:23:33.335Z,9.66
2023-03-22T05:26:01.665Z,9.68
2023-03-22T05:28:28.721Z,9.69
2023-03-22T05:30:57.096Z,9.72
2023-03-22T05:33:23.923Z,9.76
2023-03-22T05:35:51.307Z,9.78
2023-03-22T05:38:18.221Z,9.79
2023-03-22T05:40:45.278Z,9.77
2023-03-22T05:43:12.714Z,9.72
2023-03-22T05:45:39.625Z,9.73
2023-03-22T05:48:07.035Z,9.76
2023-03-22T05:50:34.300Z,9.75
2023-03-22T05:53:02.163Z,9.76
2023-03-22T05:55:31.924Z,9.80
2023-03-22T05:57:59.597Z,9.79
2023-03-22T06:00:26.212Z,9.80
2023-03-22T06:02:56.384Z,9.84
2023-03-22T06:05:23.783Z,9.83
2023-03-22T06:07:50.341Z,9.84
2023-03-22T06:10:18.303Z,9.84
2023-03-22T06:12:45.388Z,9.87
2023-03-22T06:15:12.614Z,9.89
2023-03-22T06:17:39.339Z,9.89
2023-03-22T06:20:10.834Z,9.90
2023-03-22T06:22:38.238Z,9.91
2023-03-22T06:25:07.326Z,9.91
2023-03-22T06:27:34.440Z,9.91
2023-03-22T06:30:01.179Z,9.90
2023-03-22T06:32:28.066Z,9.91
2023-03-22T06:34:55.660Z,9.97
2023-03-22T06:37:23.265Z,9.94
2023-03-22T06:39:51.361Z,9.91
2023-03-22T06:42:18.080Z,9.93
2023-03-22T06:44:44.935Z,9.95
2023-03-22T06:47:11.944Z,9.91
2023-03-22T06:49:40.273Z,9.95
2023-03-22T06:52:06.878Z,9.99
2023-03-22T06:54:34.248Z,10.02
2023-03-22T06:57:00.862Z,10.08
2023-03-22T06:59:27.969Z,10.10
2023-03-22T07:01:54.563Z,10.12
2023-03-22T07:04:21.335Z,10.18
2023-03-22T07:06:48.285Z,10.16
2023-03-22T07:09:14.899Z,10.21
2023-03-22T07:11:41.485Z,10.20
2023-03-22T07:14:08.203Z,10.22
2023-03-22T07:16:34.823Z,10.20
2023-03-22T07:19:01.473Z,10.18
2023-03-22T07:21:28.509Z,10.25
2023-03-22T07:23:55.566Z,10.25
2023-03-22T07:26:22.148Z,10.23
2023-03-22T07:28:48.736Z,10.23
2023-03-22T07:31:16.922Z,10.26
2023-03-22T07:33:43.532Z,10.18
2023-03-22T07:36:11.080Z,10.23
2023-03-22T07:38:37.993Z,10.21
2023-03-22T07:41:04.730Z,10.22
2023-03-22T07:43:31.307Z,10.19
2023-03-22T07:45:58.064Z,10.25
2023-03-22T07:48:24.856Z,10.27
2023-03-22T07:50:56.385Z,10.28
2023-03-22T07:53:22.951Z,10.29
2023-03-22T07:55:49.596Z,10.25
2023-03-22T07:58:16.212Z,10.25
2023-03-22T08:00:42.804Z,10.20
2023-03-22T08:03:12.415Z,10.21
2023-03-22T08:05:43.336Z,10.20
2023-03-22T08:08:10.852Z,10.22
2023-03-22T08:10:38.410Z,10.28
2023-03-22T08:13:05.239Z,10.27
2023-03-22T08:15:31.856Z,10.32
2023-03-22T08:17:58.439Z,10.37
2023-03-22T08:20:27.369Z,10.32
2023-03-22T08:22:54.930Z,10.25
2023-03-22T08:25:21.924Z,10.23
2023-03-22T08:27:48.412Z,10.22
2023-03-22T08:30:15.267Z,10.20
2023-03-22T08:32:41.844Z,10.15
2023-03-22T08:35:09.089Z,10.07
2023-03-22T08:37:35.721Z,9.94
2023-03-22T08:40:02.364Z,9.86
2023-03-22T08:42:28.990Z,9.83
2023-03-22T08:44:55.542Z,9.78
2023-03-22T08:47:22.190Z,9.69
2023-03-22T08:49:48.725Z,9.75
2023-03-22T08:52:15.414Z,9.78
2023-03-22T08:54:42.201Z,9.81
2023-03-22T08:57:17.605Z,9.80
2023-03-22T08:59:44.226Z,9.83
2023-03-22T09:02:10.878Z,9.84
2023-03-22T09:04:37.596Z,9.91
2023-03-22T09:07:04.319Z,9.83
2023-03-22T09:09:30.965Z,9.83
2023-03-22T09:11:58.228Z,9.86
2023-03-22T09:14:24.808Z,9.90
2023-03-22T09:16:51.864Z,9.97
2023-03-22T09:19:18.429Z,9.97
2023-03-22T09:21:45.574Z,9.98
2023-03-22T09:24:12.267Z,10.03
2023-03-22T09:26:38.920Z,9.98
2023-03-22T09:29:05.663Z,10.01
2023-03-22T09:31:32.234Z,9.95
2023-03-22T09:33:58.871Z,10.00
2023-03-22T09:36:25.450Z,9.98
2023-03-22T09:38:52.154Z,9.94
2023-03-22T09:41:24.165Z,9.95
2023-03-22T09:44:03.575Z,9.89
2023-03-22T09:46:40.713Z,9.93
2023-03-22T09:49:14.290Z,9.96
2023-03-22T09:51:44.851Z,9.95
2023-03-22T09:54:15.352Z,9.89
2023-03-22T09:56:44.338Z,9.97
2023-03-22T09:59:23.709Z,9.98
2023-03-22T10:02:04.760Z,9.99
2023-03-22T10:04:49.722Z,10.12
2023-03-22T10:07:28.334Z,10.12
2023-03-22T10:09:57.884Z,10.11
2023-03-22T10:12:31.470Z,10.15
2023-03-22T10:15:15.121Z,10.15
2023-03-22T10:17:52.091Z,10.25
2023-03-22T10:20:45.328Z,10.22
2023-03-22T10:23:16.814Z,10.28
2023-03-22T10:25:43.882Z,10.36
2023-03-22T10:28:29.136Z,10.44
2023-03-22T10:30:57.619Z,10.42
2023-03-22T10:33:33.689Z,10.51
2023-03-22T10:36:02.134Z,10.66
2023-03-22T10:38:31.216Z,10.72
2023-03-22T10:40:59.802Z,10.79
2023-03-22T10:43:35.138Z,10.80
2023-03-22T10:46:05.458Z,10.92
2023-03-22T10:48:39.465Z,11.00
2023-03-22T10:51:07.121Z,11.14
2023-03-22T10:53:46.620Z,11.23
2023-03-22T10:56:18.747Z,11.41
2023-03-22T10:58:46.268Z,11.54
2023-03-22T11:01:26.112Z,11.39
2023-03-22T11:03:56.749Z,11.44
2023-03-22T11:06:38.182Z,11.57
2023-03-22T11:09:13.738Z,11.62
2023-03-22T11:11:55.627Z,11.62
2023-03-22T11:14:35.692Z,11.68
2023-03-22T11:17:12.675Z,11.71
2023-03-22T11:19:52.737Z,11.64
2023-03-22T11:22:19.264Z,11.63
2023-03-22T11:24:47.578Z,11.65
2023-03-22T11:27:25.216Z,11.62
2023-03-22T11:29:54.410Z,11.63
2023-03-22T11:32:32.970Z,11.71
2023-03-22T11:35:05.652Z,11.66
2023-03-22T11:37:32.275Z,11.68
2023-03-22T11:40:05.049Z,11.82
2023-03-22T11:42:34.424Z,11.80
2023-03-22T11:45:01.087Z,11.74
2023-03-22T11:47:34.394Z,11.72
2023-03-22T11:50:04.933Z,11.71
2023-03-22T11:52:31.597Z,11.75
2023-03-22T11:54:59.642Z,11.74
2023-03-22T11:57:29.700Z,11.79
2023-03-22T12:00:07.193Z,11.78
2023-03-22T12:02:46.433Z,11.80
2023-03-22T12:05:23.212Z,11.86
2023-03-22T12:07:55.864Z,11.90
2023-03-22T12:10:31.158Z,11.89
2023-03-22T12:13:06.145Z,11.88
2023-03-22T12:15:38.475Z,11.88
2023-03-22T12:18:27.809Z,11.94
2023-03-22T12:20:59.233Z,11.90
2023-03-22T12:23:32.024Z,11.92
2023-03-22T12:26:15.748Z,11.96
2023-03-22T12:28:53.362Z,11.97
2023-03-22T12:31:26.518Z,11.99
2023-03-22T12:33:59.605Z,11.99
2023-03-22T12:36:42.880Z,11.99
2023-03-22T12:39:19.605Z,12.00
2023-03-22T12:41:50.800Z,12.05
2023-03-22T12:44:24.627Z,12.06
2023-03-22T12:47:01.132Z,12.03
2023-03-22T12:49:43.141Z,12.06
2023-03-22T12:52:26.436Z,12.04
2023-03-22T12:54:59.375Z,12.08
2023-03-22T12:57:26.592Z,12.03
2023-03-22T12:59:57.852Z,12.02
2023-03-22T13:02:32.154Z,12.02
2023-03-22T13:05:09.540Z,12.03
2023-03-22T13:07:52.098Z,12.02
2023-03-22T13:10:30.934Z,12.07
2023-03-22T13:13:29.792Z,12.16
2023-03-22T13:16:15.603Z,12.20
2023-03-22T13:18:42.434Z,12.17
2023-03-22T13:21:22.904Z,12.17
2023-03-22T13:23:55.095Z,12.17
2023-03-22T13:26:28.090Z,12.31
2023-03-22T13:28:59.953Z,12.35
2023-03-22T13:31:37.532Z,12.43
2023-03-22T13:34:04.907Z,12.47
2023-03-22T13:36:32.271Z,12.49
2023-03-22T13:39:03.195Z,12.45
2023-03-22T13:41:32.776Z,12.53
2023-03-22T13:44:01.551Z,12.65
2023-03-22T13:46:36.976Z,12.57
2023-03-22T13:49:04.195Z,12.59
2023-03-22T13:51:33.886Z,12.61
2023-03-22T13:54:18.694Z,12.73
2023-03-22T13:56:57.339Z,12.83
2023-03-22T13:59:33.970Z,12.76
2023-03-22T14:02:15.846Z,12.65
2023-03-22T14:04:56.580Z,12.59
2023-03-22T14:07:28.861Z,12.47
2023-03-22T14:10:03.382Z,12.39
2023-03-22T14:12:48.229Z,12.35
2023-03-22T14:15:19.174Z,12.41
2023-03-22T14:17:59.598Z,12.26
2023-03-22T14:20:31.018Z,12.23
